sensor_id;sensor_type;location;lat;lon;timestamp;temperature;humidity
58638;DHT22;54976;51.510;7.522;2023-05-10T00:00:01;14.00;99.90
58638;DHT22;54976;51.510;7.522;2023-05-10T00:03:02;14.00;99.90
58638;DHT22;54976;51.510;7.522;2023-05-10T00:06:05;14.00;99.90
58638;DHT22;54976;51.510;7.522;2023-05-10T00:09:06;14.00;99.90
58638;DHT22;54976;51.510;7.522;2023-05-10T00:12:06;14.00;99.90
58638;DHT22;54976;51.510;7.522;2023-05-10T00:15:08;14.00;99.90
58638;DHT22;54976;51.510;7.522;2023-05-10T00:18:08;14.10;99.90
58638;DHT22;54976;51.510;7.522;2023-05-10T00:21:09;14.10;99.90
58638;DHT22;54976;51.510;7.522;2023-05-10T00:24:10;14.00;99.90
58638;DHT22;54976;51.510;7.522;2023-05-10T00:27:10;14.10;99.90
58638;DHT22;54976;51.510;7.522;2023-05-10T00:30:11;14.00;99.90
58638;DHT22;54976;51.510;7.522;2023-05-10T00:33:11;14.00;99.90
58638;DHT22;54976;51.510;7.522;2023-05-10T00:36:12;14.00;99.90
58638;DHT22;54976;51.510;7.522;2023-05-10T00:39:13;14.00;99.90
58638;DHT22;54976;51.510;7.522;2023-05-10T00:42:14;14.20;99.90
58638;DHT22;54976;51.510;7.522;2023-05-10T00:45:14;14.00;99.90
58638;DHT22;54976;51.510;7.522;2023-05-10T00:48:15;14.10;99.90
58638;DHT22;54976;51.510;7.522;2023-05-10T00:51:15;14.00;99.90
58638;DHT22;54976;51.510;7.522;2023-05-10T00:54:16;13.90;99.90
58638;DHT22;54976;51.510;7.522;2023-05-10T00:57:17;14.00;99.90
58638;DHT22;54976;51.510;7.522;2023-05-10T01:00:18;13.90;99.90
58638;DHT22;54976;51.510;7.522;2023-05-10T01:03:19;13.90;99.90
58638;DHT22;54976;51.510;7.522;2023-05-10T01:06:19;14.00;99.90
58638;DHT22;54976;51.510;7.522;2023-05-10T01:09:21;13.90;99.90
58638;DHT22;54976;51.510;7.522;2023-05-10T01:12:22;13.90;99.90
58638;DHT22;54976;51.510;7.522;2023-05-10T01:15:23;13.90;99.90
58638;DHT22;54976;51.510;7.522;2023-05-10T01:18:24;13.90;99.90
58638;DHT22;54976;51.510;7.522;2023-05-10T01:31:30;13.90;99.90
58638;DHT22;54976;51.510;7.522;2023-05-10T01:38:38;13.90;99.90
58638;DHT22;54976;51.510;7.522;2023-05-10T01:51:07;14.00;99.90
58638;DHT22;54976;51.510;7.522;2023-05-10T01:54:09;14.00;99.90
58638;DHT22;54976;51.510;7.522;2023-05-10T01:57:13;14.00;99.90
58638;DHT22;54976;51.510;7.522;2023-05-10T02:00:16;14.00;99.90
58638;DHT22;54976;51.510;7.522;2023-05-10T02:03:18;14.00;99.90
58638;DHT22;54976;51.510;7.522;2023-05-10T02:06:22;14.00;99.90
58638;DHT22;54976;51.510;7.522;2023-05-10T02:09:25;14.10;99.90
58638;DHT22;54976;51.510;7.522;2023-05-10T02:12:27;14.00;99.90
58638;DHT22;54976;51.510;7.522;2023-05-10T02:15:30;14.00;99.90
58638;DHT22;54976;51.510;7.522;2023-05-10T02:18:32;14.00;99.90
58638;DHT22;54976;51.510;7.522;2023-05-10T02:21:34;14.00;99.90
58638;DHT22;54976;51.510;7.522;2023-05-10T02:24:36;14.00;99.90
58638;DHT22;54976;51.510;7.522;2023-05-10T02:27:37;13.90;99.90
58638;DHT22;54976;51.510;7.522;2023-05-10T02:30:39;13.90;99.90
58638;DHT22;54976;51.510;7.522;2023-05-10T02:33:40;13.90;99.90
58638;DHT22;54976;51.510;7.522;2023-05-10T02:36:42;13.90;99.90
58638;DHT22;54976;51.510;7.522;2023-05-10T02:39:43;13.90;99.90
58638;DHT22;54976;51.510;7.522;2023-05-10T02:42:47;13.90;99.90
58638;DHT22;54976;51.510;7.522;2023-05-10T02:45:49;14.00;99.90
58638;DHT22;54976;51.510;7.522;2023-05-10T02:48:49;13.90;99.90
58638;DHT22;54976;51.510;7.522;2023-05-10T02:51:57;13.80;99.90
58638;DHT22;54976;51.510;7.522;2023-05-10T02:55:02;13.80;99.90
58638;DHT22;54976;51.510;7.522;2023-05-10T02:58:05;13.80;99.90
58638;DHT22;54976;51.510;7.522;2023-05-10T03:01:05;13.90;99.90
58638;DHT22;54976;51.510;7.522;2023-05-10T03:04:07;13.90;99.90
58638;DHT22;54976;51.510;7.522;2023-05-10T03:07:08;13.80;99.90
58638;DHT22;54976;51.510;7.522;2023-05-10T03:10:09;13.80;99.90
58638;DHT22;54976;51.510;7.522;2023-05-10T03:13:29;13.70;99.90
58638;DHT22;54976;51.510;7.522;2023-05-10T03:16:46;13.70;99.90
58638;DHT22;54976;51.510;7.522;2023-05-10T03:19:58;13.60;99.90
58638;DHT22;54976;51.510;7.522;2023-05-10T03:23:35;13.60;99.90
58638;DHT22;54976;51.510;7.522;2023-05-10T03:26:38;13.60;99.90
58638;DHT22;54976;51.510;7.522;2023-05-10T03:29:40;13.60;99.90
58638;DHT22;54976;51.510;7.522;2023-05-10T03:32:42;13.50;99.90
58638;DHT22;54976;51.510;7.522;2023-05-10T03:35:42;13.40;99.90
58638;DHT22;54976;51.510;7.522;2023-05-10T03:38:45;13.40;99.90
58638;DHT22;54976;51.510;7.522;2023-05-10T03:41:46;13.40;99.90
58638;DHT22;54976;51.510;7.522;2023-05-10T03:44:47;13.40;99.90
58638;DHT22;54976;51.510;7.522;2023-05-10T03:47:49;13.50;99.90
58638;DHT22;54976;51.510;7.522;2023-05-10T03:50:50;13.40;99.90
58638;DHT22;54976;51.510;7.522;2023-05-10T03:53:50;13.30;99.90
58638;DHT22;54976;51.510;7.522;2023-05-10T03:56:51;13.30;99.90
58638;DHT22;54976;51.510;7.522;2023-05-10T03:59:51;13.30;99.90
58638;DHT22;54976;51.510;7.522;2023-05-10T04:02:52;13.30;99.90
58638;DHT22;54976;51.510;7.522;2023-05-10T04:06:00;13.40;99.90
58638;DHT22;54976;51.510;7.522;2023-05-10T04:09:01;13.40;99.90
58638;DHT22;54976;51.510;7.522;2023-05-10T04:12:04;13.40;99.90
58638;DHT22;54976;51.510;7.522;2023-05-10T04:15:06;13.50;99.90
58638;DHT22;54976;51.510;7.522;2023-05-10T04:18:07;13.50;99.90
58638;DHT22;54976;51.510;7.522;2023-05-10T04:21:14;13.50;99.90
58638;DHT22;54976;51.510;7.522;2023-05-10T04:24:14;13.50;99.90
58638;DHT22;54976;51.510;7.522;2023-05-10T04:27:15;13.50;99.90
58638;DHT22;54976;51.510;7.522;2023-05-10T04:30:16;13.50;99.90
58638;DHT22;54976;51.510;7.522;2023-05-10T04:33:16;13.50;99.90
58638;DHT22;54976;51.510;7.522;2023-05-10T04:36:17;13.50;99.90
58638;DHT22;54976;51.510;7.522;2023-05-10T04:39:17;13.60;99.90
58638;DHT22;54976;51.510;7.522;2023-05-10T04:42:18;13.50;99.90
58638;DHT22;54976;51.510;7.522;2023-05-10T04:45:19;13.60;99.90
58638;DHT22;54976;51.510;7.522;2023-05-10T04:48:19;13.60;99.90
58638;DHT22;54976;51.510;7.522;2023-05-10T04:51:20;13.60;99.90
58638;DHT22;54976;51.510;7.522;2023-05-10T04:54:20;13.60;99.90
58638;DHT22;54976;51.510;7.522;2023-05-10T04:57:21;13.60;99.90
58638;DHT22;54976;51.510;7.522;2023-05-10T05:00:22;13.60;99.90
58638;DHT22;54976;51.510;7.522;2023-05-10T05:03:23;13.60;99.90
58638;DHT22;54976;51.510;7.522;2023-05-10T05:06:24;13.60;99.90
58638;DHT22;54976;51.510;7.522;2023-05-10T05:09:25;13.60;99.90
58638;DHT22;54976;51.510;7.522;2023-05-10T05:12:25;13.60;99.90
58638;DHT22;54976;51.510;7.522;2023-05-10T05:15:26;13.60;99.90
58638;DHT22;54976;51.510;7.522;2023-05-10T05:18:27;13.60;99.90
58638;DHT22;54976;51.510;7.522;2023-05-10T05:21:28;13.70;99.90
58638;DHT22;54976;51.510;7.522;2023-05-10T05:24:29;13.70;99.90
58638;DHT22;54976;51.510;7.522;2023-05-10T05:27:29;13.80;99.90
58638;DHT22;54976;51.510;7.522;2023-05-10T05:30:33;13.90;99.90
58638;DHT22;54976;51.510;7.522;2023-05-10T05:33:34;13.90;99.90
58638;DHT22;54976;51.510;7.522;2023-05-10T05:36:36;14.00;99.90
58638;DHT22;54976;51.510;7.522;2023-05-10T05:39:38;13.90;99.90
58638;DHT22;54976;51.510;7.522;2023-05-10T05:42:39;13.90;99.90
58638;DHT22;54976;51.510;7.522;2023-05-10T05:45:39;14.00;99.90
58638;DHT22;54976;51.510;7.522;2023-05-10T05:48:40;14.10;99.90
58638;DHT22;54976;51.510;7.522;2023-05-10T05:51:41;14.00;99.90
58638;DHT22;54976;51.510;7.522;2023-05-10T05:54:41;14.10;99.90
58638;DHT22;54976;51.510;7.522;2023-05-10T05:57:42;14.10;99.90
58638;DHT22;54976;51.510;7.522;2023-05-10T06:00:43;14.10;99.90
58638;DHT22;54976;51.510;7.522;2023-05-10T06:03:43;14.30;99.90
58638;DHT22;54976;51.510;7.522;2023-05-10T06:06:44;14.40;99.90
58638;DHT22;54976;51.510;7.522;2023-05-10T06:09:45;14.40;99.90
58638;DHT22;54976;51.510;7.522;2023-05-10T06:12:45;14.30;99.90
58638;DHT22;54976;51.510;7.522;2023-05-10T06:15:46;14.30;99.90
58638;DHT22;54976;51.510;7.522;2023-05-10T06:18:46;14.50;99.90
58638;DHT22;54976;51.510;7.522;2023-05-10T06:21:47;14.70;99.90
58638;DHT22;54976;51.510;7.522;2023-05-10T06:24:48;15.00;99.90
58638;DHT22;54976;51.510;7.522;2023-05-10T06:27:49;15.00;99.90
58638;DHT22;54976;51.510;7.522;2023-05-10T06:30:49;15.00;99.90
58638;DHT22;54976;51.510;7.522;2023-05-10T06:33:50;15.00;99.90
58638;DHT22;54976;51.510;7.522;2023-05-10T06:36:51;14.90;99.90
58638;DHT22;54976;51.510;7.522;2023-05-10T06:39:52;15.00;99.90
58638;DHT22;54976;51.510;7.522;2023-05-10T06:42:52;15.00;99.90
58638;DHT22;54976;51.510;7.522;2023-05-10T06:45:53;15.10;99.90
58638;DHT22;54976;51.510;7.522;2023-05-10T06:48:53;15.00;99.90
58638;DHT22;54976;51.510;7.522;2023-05-10T06:51:55;15.00;99.90
58638;DHT22;54976;51.510;7.522;2023-05-10T06:54:56;14.90;99.90
58638;DHT22;54976;51.510;7.522;2023-05-10T06:57:57;14.90;99.90
58638;DHT22;54976;51.510;7.522;2023-05-10T07:01:02;14.90;99.90
58638;DHT22;54976;51.510;7.522;2023-05-10T07:04:03;14.90;99.90
58638;DHT22;54976;51.510;7.522;2023-05-10T07:07:04;14.90;99.90
58638;DHT22;54976;51.510;7.522;2023-05-10T07:10:05;14.90;99.90
58638;DHT22;54976;51.510;7.522;2023-05-10T07:13:06;14.80;99.90
58638;DHT22;54976;51.510;7.522;2023-05-10T07:16:06;14.80;99.90
58638;DHT22;54976;51.510;7.522;2023-05-10T07:19:07;14.90;99.90
58638;DHT22;54976;51.510;7.522;2023-05-10T07:22:08;15.00;99.90
58638;DHT22;54976;51.510;7.522;2023-05-10T07:25:09;15.10;99.90
58638;DHT22;54976;51.510;7.522;2023-05-10T07:28:13;15.50;99.90
58638;DHT22;54976;51.510;7.522;2023-05-10T07:31:14;15.80;99.90
58638;DHT22;54976;51.510;7.522;2023-05-10T07:34:14;16.40;99.90
58638;DHT22;54976;51.510;7.522;2023-05-10T07:37:15;17.00;99.90
58638;DHT22;54976;51.510;7.522;2023-05-10T07:40:16;17.30;99.90
58638;DHT22;54976;51.510;7.522;2023-05-10T07:43:16;17.30;99.90
58638;DHT22;54976;51.510;7.522;2023-05-10T07:46:17;17.70;99.90
58638;DHT22;54976;51.510;7.522;2023-05-10T07:49:19;17.80;99.90
58638;DHT22;54976;51.510;7.522;2023-05-10T07:52:20;17.50;99.90
58638;DHT22;54976;51.510;7.522;2023-05-10T07:55:20;17.50;99.90
58638;DHT22;54976;51.510;7.522;2023-05-10T07:58:24;17.50;99.90
58638;DHT22;54976;51.510;7.522;2023-05-10T08:01:26;17.60;99.90
58638;DHT22;54976;51.510;7.522;2023-05-10T08:04:27;17.40;99.90
58638;DHT22;54976;51.510;7.522;2023-05-10T08:07:28;17.10;99.90
58638;DHT22;54976;51.510;7.522;2023-05-10T08:10:28;16.90;99.90
58638;DHT22;54976;51.510;7.522;2023-05-10T08:13:29;16.70;99.90
58638;DHT22;54976;51.510;7.522;2023-05-10T08:16:29;16.50;99.90
58638;DHT22;54976;51.510;7.522;2023-05-10T08:19:30;16.40;99.90
58638;DHT22;54976;51.510;7.522;2023-05-10T08:22:30;16.50;99.90
58638;DHT22;54976;51.510;7.522;2023-05-10T08:25:31;16.40;99.90
58638;DHT22;54976;51.510;7.522;2023-05-10T08:28:32;16.40;99.90
58638;DHT22;54976;51.510;7.522;2023-05-10T08:31:32;16.50;99.90
58638;DHT22;54976;51.510;7.522;2023-05-10T08:34:33;16.70;99.90
58638;DHT22;54976;51.510;7.522;2023-05-10T08:37:34;17.00;99.90
58638;DHT22;54976;51.510;7.522;2023-05-10T08:40:35;17.50;99.90
58638;DHT22;54976;51.510;7.522;2023-05-10T08:43:37;17.80;99.90
58638;DHT22;54976;51.510;7.522;2023-05-10T08:46:41;18.10;99.90
58638;DHT22;54976;51.510;7.522;2023-05-10T08:49:47;18.10;98.90
58638;DHT22;54976;51.510;7.522;2023-05-10T08:52:52;18.10;97.60
58638;DHT22;54976;51.510;7.522;2023-05-10T08:55:55;17.90;98.80
58638;DHT22;54976;51.510;7.522;2023-05-10T08:58:57;17.80;98.90
58638;DHT22;54976;51.510;7.522;2023-05-10T09:01:58;18.00;99.00
58638;DHT22;54976;51.510;7.522;2023-05-10T09:04:59;18.00;97.70
58638;DHT22;54976;51.510;7.522;2023-05-10T09:08:00;18.00;98.60
58638;DHT22;54976;51.510;7.522;2023-05-10T09:11:01;17.80;98.00
58638;DHT22;54976;51.510;7.522;2023-05-10T09:14:02;17.50;97.90
58638;DHT22;54976;51.510;7.522;2023-05-10T09:17:03;17.30;99.60
58638;DHT22;54976;51.510;7.522;2023-05-10T09:20:04;17.70;99.40
58638;DHT22;54976;51.510;7.522;2023-05-10T09:23:05;18.10;99.00
58638;DHT22;54976;51.510;7.522;2023-05-10T09:26:06;18.30;98.40
58638;DHT22;54976;51.510;7.522;2023-05-10T09:29:07;18.30;98.30
58638;DHT22;54976;51.510;7.522;2023-05-10T09:32:08;18.30;97.80
58638;DHT22;54976;51.510;7.522;2023-05-10T09:35:17;18.70;96.50
58638;DHT22;54976;51.510;7.522;2023-05-10T09:38:18;18.60;96.80
58638;DHT22;54976;51.510;7.522;2023-05-10T09:41:20;18.60;96.00
58638;DHT22;54976;51.510;7.522;2023-05-10T09:44:21;18.90;96.30
58638;DHT22;54976;51.510;7.522;2023-05-10T09:47:22;18.90;94.80
58638;DHT22;54976;51.510;7.522;2023-05-10T09:50:23;19.00;94.90
58638;DHT22;54976;51.510;7.522;2023-05-10T09:53:24;19.30;93.90
58638;DHT22;54976;51.510;7.522;2023-05-10T09:56:37;19.50;94.40
58638;DHT22;54976;51.510;7.522;2023-05-10T09:59:43;19.60;93.40
58638;DHT22;54976;51.510;7.522;2023-05-10T10:02:45;19.60;91.90
58638;DHT22;54976;51.510;7.522;2023-05-10T10:05:47;19.80;92.50
58638;DHT22;54976;51.510;7.522;2023-05-10T10:08:48;19.80;91.50
58638;DHT22;54976;51.510;7.522;2023-05-10T10:11:50;19.80;92.20
58638;DHT22;54976;51.510;7.522;2023-05-10T10:14:51;19.90;92.30
58638;DHT22;54976;51.510;7.522;2023-05-10T10:17:52;20.00;91.20
58638;DHT22;54976;51.510;7.522;2023-05-10T10:20:54;20.10;91.80
58638;DHT22;54976;51.510;7.522;2023-05-10T10:23:55;20.10;90.30
58638;DHT22;54976;51.510;7.522;2023-05-10T10:27:43;20.00;86.80
58638;DHT22;54976;51.510;7.522;2023-05-10T10:30:45;20.00;89.60
58638;DHT22;54976;51.510;7.522;2023-05-10T10:36:47;20.10;89.40
58638;DHT22;54976;51.510;7.522;2023-05-10T10:39:49;20.10;90.30
58638;DHT22;54976;51.510;7.522;2023-05-10T10:42:50;20.10;91.10
58638;DHT22;54976;51.510;7.522;2023-05-10T10:49:15;20.20;89.10
58638;DHT22;54976;51.510;7.522;2023-05-10T10:52:34;20.20;89.80
58638;DHT22;54976;51.510;7.522;2023-05-10T10:55:47;20.20;86.80
58638;DHT22;54976;51.510;7.522;2023-05-10T10:58:51;20.20;84.90
58638;DHT22;54976;51.510;7.522;2023-05-10T11:01:53;20.20;85.30
58638;DHT22;54976;51.510;7.522;2023-05-10T11:04:54;20.30;85.00
58638;DHT22;54976;51.510;7.522;2023-05-10T11:07:59;20.30;83.50
58638;DHT22;54976;51.510;7.522;2023-05-10T11:14:07;20.40;83.30
58638;DHT22;54976;51.510;7.522;2023-05-10T11:17:24;20.50;83.40
58638;DHT22;54976;51.510;7.522;2023-05-10T11:20:28;20.50;83.60
58638;DHT22;54976;51.510;7.522;2023-05-10T11:26:45;20.50;81.90
58638;DHT22;54976;51.510;7.522;2023-05-10T11:29:46;20.50;78.90
58638;DHT22;54976;51.510;7.522;2023-05-10T11:32:47;20.70;77.30
58638;DHT22;54976;51.510;7.522;2023-05-10T11:35:47;20.90;80.30
58638;DHT22;54976;51.510;7.522;2023-05-10T11:38:48;20.90;76.00
58638;DHT22;54976;51.510;7.522;2023-05-10T11:41:49;20.90;74.00
58638;DHT22;54976;51.510;7.522;2023-05-10T11:44:50;20.70;75.00
58638;DHT22;54976;51.510;7.522;2023-05-10T11:47:50;20.40;77.20
58638;DHT22;54976;51.510;7.522;2023-05-10T11:50:51;20.10;77.20
58638;DHT22;54976;51.510;7.522;2023-05-10T11:53:54;19.80;80.50
58638;DHT22;54976;51.510;7.522;2023-05-10T11:56:55;19.60;78.40
58638;DHT22;54976;51.510;7.522;2023-05-10T11:59:58;19.50;78.80
58638;DHT22;54976;51.510;7.522;2023-05-10T12:03:01;19.70;78.70
58638;DHT22;54976;51.510;7.522;2023-05-10T12:06:02;19.70;78.70
58638;DHT22;54976;51.510;7.522;2023-05-10T12:09:06;19.40;78.90
58638;DHT22;54976;51.510;7.522;2023-05-10T12:12:08;19.30;81.10
58638;DHT22;54976;51.510;7.522;2023-05-10T12:15:17;19.10;80.70
58638;DHT22;54976;51.510;7.522;2023-05-10T12:18:22;19.20;80.90
58638;DHT22;54976;51.510;7.522;2023-05-10T12:21:25;19.40;79.50
58638;DHT22;54976;51.510;7.522;2023-05-10T12:24:26;19.90;77.90
58638;DHT22;54976;51.510;7.522;2023-05-10T12:27:31;20.30;75.40
58638;DHT22;54976;51.510;7.522;2023-05-10T12:30:33;20.60;75.30
58638;DHT22;54976;51.510;7.522;2023-05-10T12:33:44;20.50;73.00
58638;DHT22;54976;51.510;7.522;2023-05-10T12:36:45;20.10;74.40
58638;DHT22;54976;51.510;7.522;2023-05-10T12:39:50;19.70;77.40
58638;DHT22;54976;51.510;7.522;2023-05-10T12:42:50;19.30;80.00
58638;DHT22;54976;51.510;7.522;2023-05-10T12:45:51;18.90;80.40
58638;DHT22;54976;51.510;7.522;2023-05-10T12:48:52;18.70;83.70
58638;DHT22;54976;51.510;7.522;2023-05-10T12:51:55;18.60;84.70
58638;DHT22;54976;51.510;7.522;2023-05-10T12:54:55;18.70;84.60
58638;DHT22;54976;51.510;7.522;2023-05-10T12:57:56;19.30;82.70
58638;DHT22;54976;51.510;7.522;2023-05-10T13:00:58;20.40;80.60
58638;DHT22;54976;51.510;7.522;2023-05-10T13:03:59;21.20;75.10
58638;DHT22;54976;51.510;7.522;2023-05-10T13:07:00;22.00;70.40
58638;DHT22;54976;51.510;7.522;2023-05-10T13:10:01;22.00;66.60
58638;DHT22;54976;51.510;7.522;2023-05-10T13:13:01;21.70;64.60
58638;DHT22;54976;51.510;7.522;2023-05-10T13:16:03;21.10;69.60
58638;DHT22;54976;51.510;7.522;2023-05-10T13:19:03;20.90;71.20
58638;DHT22;54976;51.510;7.522;2023-05-10T13:22:04;21.40;66.70
58638;DHT22;54976;51.510;7.522;2023-05-10T13:25:05;22.10;67.40
58638;DHT22;54976;51.510;7.522;2023-05-10T13:28:06;21.90;63.50
58638;DHT22;54976;51.510;7.522;2023-05-10T13:31:07;21.50;65.70
58638;DHT22;54976;51.510;7.522;2023-05-10T13:34:07;21.00;65.40
58638;DHT22;54976;51.510;7.522;2023-05-10T13:37:08;20.80;68.70
58638;DHT22;54976;51.510;7.522;2023-05-10T13:40:09;20.70;68.40
58638;DHT22;54976;51.510;7.522;2023-05-10T13:43:09;20.80;71.30
58638;DHT22;54976;51.510;7.522;2023-05-10T13:46:10;20.60;68.30
58638;DHT22;54976;51.510;7.522;2023-05-10T13:49:10;20.20;68.30
58638;DHT22;54976;51.510;7.522;2023-05-10T13:52:11;19.80;71.40
58638;DHT22;54976;51.510;7.522;2023-05-10T13:55:12;19.80;74.60
58638;DHT22;54976;51.510;7.522;2023-05-10T13:58:13;20.00;74.50
58638;DHT22;54976;51.510;7.522;2023-05-10T14:01:14;20.20;70.60
58638;DHT22;54976;51.510;7.522;2023-05-10T14:04:14;20.20;72.10
58638;DHT22;54976;51.510;7.522;2023-05-10T14:07:15;20.10;72.10
58638;DHT22;54976;51.510;7.522;2023-05-10T14:10:16;20.10;74.00
58638;DHT22;54976;51.510;7.522;2023-05-10T14:13:16;20.10;74.70
58638;DHT22;54976;51.510;7.522;2023-05-10T14:16:17;20.00;74.60
58638;DHT22;54976;51.510;7.522;2023-05-10T14:19:17;19.80;75.90
58638;DHT22;54976;51.510;7.522;2023-05-10T14:22:18;19.80;74.60
58638;DHT22;54976;51.510;7.522;2023-05-10T14:25:19;20.40;71.50
58638;DHT22;54976;51.510;7.522;2023-05-10T14:28:19;21.30;60.90
58638;DHT22;54976;51.510;7.522;2023-05-10T14:31:21;21.90;60.10
58638;DHT22;54976;51.510;7.522;2023-05-10T14:34:22;22.40;58.90
58638;DHT22;54976;51.510;7.522;2023-05-10T14:37:22;22.70;55.10
58638;DHT22;54976;51.510;7.522;2023-05-10T14:40:23;22.40;54.90
58638;DHT22;54976;51.510;7.522;2023-05-10T14:43:23;22.60;54.10
58638;DHT22;54976;51.510;7.522;2023-05-10T14:46:24;22.50;55.20
58638;DHT22;54976;51.510;7.522;2023-05-10T14:49:25;22.70;54.70
58638;DHT22;54976;51.510;7.522;2023-05-10T14:52:26;23.10;55.20
58638;DHT22;54976;51.510;7.522;2023-05-10T14:55:27;23.30;53.80
58638;DHT22;54976;51.510;7.522;2023-05-10T14:58:27;22.90;53.30
58638;DHT22;54976;51.510;7.522;2023-05-10T15:01:28;22.90;52.80
58638;DHT22;54976;51.510;7.522;2023-05-10T15:04:28;22.40;53.90
58638;DHT22;54976;51.510;7.522;2023-05-10T15:07:29;22.40;54.40
58638;DHT22;54976;51.510;7.522;2023-05-10T15:10:31;22.10;54.50
58638;DHT22;54976;51.510;7.522;2023-05-10T15:13:32;22.70;53.40
58638;DHT22;54976;51.510;7.522;2023-05-10T15:16:33;23.00;52.30
58638;DHT22;54976;51.510;7.522;2023-05-10T15:19:34;22.80;53.90
58638;DHT22;54976;51.510;7.522;2023-05-10T15:22:34;22.60;53.30
58638;DHT22;54976;51.510;7.522;2023-05-10T15:25:35;22.60;52.50
58638;DHT22;54976;51.510;7.522;2023-05-10T15:28:37;23.50;52.00
58638;DHT22;54976;51.510;7.522;2023-05-10T15:31:38;23.30;51.80
58638;DHT22;54976;51.510;7.522;2023-05-10T15:34:39;23.30;52.20
58638;DHT22;54976;51.510;7.522;2023-05-10T15:37:40;22.70;51.00
58638;DHT22;54976;51.510;7.522;2023-05-10T15:40:41;22.70;53.90
58638;DHT22;54976;51.510;7.522;2023-05-10T15:43:41;23.10;51.90
58638;DHT22;54976;51.510;7.522;2023-05-10T15:46:42;22.70;51.40
58638;DHT22;54976;51.510;7.522;2023-05-10T15:49:42;22.10;53.50
58638;DHT22;54976;51.510;7.522;2023-05-10T15:52:43;21.70;55.10
58638;DHT22;54976;51.510;7.522;2023-05-10T15:55:44;21.60;55.10
58638;DHT22;54976;51.510;7.522;2023-05-10T15:58:45;21.60;55.50
58638;DHT22;54976;51.510;7.522;2023-05-10T16:01:45;21.40;56.20
58638;DHT22;54976;51.510;7.522;2023-05-10T16:04:46;21.40;55.90
58638;DHT22;54976;51.510;7.522;2023-05-10T16:07:46;21.00;56.20
58638;DHT22;54976;51.510;7.522;2023-05-10T16:10:49;20.90;57.40
58638;DHT22;54976;51.510;7.522;2023-05-10T16:13:50;21.00;57.30
58638;DHT22;54976;51.510;7.522;2023-05-10T16:16:52;21.20;57.40
58638;DHT22;54976;51.510;7.522;2023-05-10T16:19:52;21.10;56.80
58638;DHT22;54976;51.510;7.522;2023-05-10T16:22:53;21.20;55.30
58638;DHT22;54976;51.510;7.522;2023-05-10T16:25:54;21.00;56.80
58638;DHT22;54976;51.510;7.522;2023-05-10T16:28:54;20.90;57.60
58638;DHT22;54976;51.510;7.522;2023-05-10T16:31:55;20.70;58.30
58638;DHT22;54976;51.510;7.522;2023-05-10T16:34:55;20.60;58.40
58638;DHT22;54976;51.510;7.522;2023-05-10T16:37:56;20.30;57.90
58638;DHT22;54976;51.510;7.522;2023-05-10T16:40:57;20.10;58.00
58638;DHT22;54976;51.510;7.522;2023-05-10T16:43:58;20.00;59.10
58638;DHT22;54976;51.510;7.522;2023-05-10T16:46:58;19.90;59.00
58638;DHT22;54976;51.510;7.522;2023-05-10T16:49:59;19.80;61.00
58638;DHT22;54976;51.510;7.522;2023-05-10T16:53:01;19.70;62.80
58638;DHT22;54976;51.510;7.522;2023-05-10T16:56:02;19.60;62.80
58638;DHT22;54976;51.510;7.522;2023-05-10T16:59:03;19.40;64.00
58638;DHT22;54976;51.510;7.522;2023-05-10T17:02:03;19.20;65.60
58638;DHT22;54976;51.510;7.522;2023-05-10T17:05:04;19.10;68.00
58638;DHT22;54976;51.510;7.522;2023-05-10T17:08:05;18.80;70.00
58638;DHT22;54976;51.510;7.522;2023-05-10T17:11:05;18.70;72.10
58638;DHT22;54976;51.510;7.522;2023-05-10T17:14:06;18.60;74.20
58638;DHT22;54976;51.510;7.522;2023-05-10T17:17:07;18.50;75.30
58638;DHT22;54976;51.510;7.522;2023-05-10T17:20:07;18.40;76.10
58638;DHT22;54976;51.510;7.522;2023-05-10T17:23:08;18.30;78.30
58638;DHT22;54976;51.510;7.522;2023-05-10T17:26:09;18.20;79.90
58638;DHT22;54976;51.510;7.522;2023-05-10T17:29:09;18.10;80.50
58638;DHT22;54976;51.510;7.522;2023-05-10T17:32:10;18.00;80.00
58638;DHT22;54976;51.510;7.522;2023-05-10T17:35:11;17.90;80.10
58638;DHT22;54976;51.510;7.522;2023-05-10T17:38:11;17.80;81.00
58638;DHT22;54976;51.510;7.522;2023-05-10T17:41:13;17.70;83.00
58638;DHT22;54976;51.510;7.522;2023-05-10T17:44:14;17.60;83.60
58638;DHT22;54976;51.510;7.522;2023-05-10T17:47:15;17.50;85.00
58638;DHT22;54976;51.510;7.522;2023-05-10T17:50:15;17.60;86.20
58638;DHT22;54976;51.510;7.522;2023-05-10T17:53:16;17.50;87.70
58638;DHT22;54976;51.510;7.522;2023-05-10T17:56:17;17.40;89.10
58638;DHT22;54976;51.510;7.522;2023-05-10T17:59:17;17.30;89.90
58638;DHT22;54976;51.510;7.522;2023-05-10T18:02:18;17.20;88.80
58638;DHT22;54976;51.510;7.522;2023-05-10T18:05:18;17.10;91.00
58638;DHT22;54976;51.510;7.522;2023-05-10T18:08:19;17.00;92.60
58638;DHT22;54976;51.510;7.522;2023-05-10T18:11:22;16.80;94.50
58638;DHT22;54976;51.510;7.522;2023-05-10T18:14:22;16.60;95.70
58638;DHT22;54976;51.510;7.522;2023-05-10T18:17:26;16.40;97.70
58638;DHT22;54976;51.510;7.522;2023-05-10T18:20:27;16.10;99.70
58638;DHT22;54976;51.510;7.522;2023-05-10T18:23:28;15.90;99.90
58638;DHT22;54976;51.510;7.522;2023-05-10T18:26:29;15.70;99.90
58638;DHT22;54976;51.510;7.522;2023-05-10T18:29:29;15.50;99.90
58638;DHT22;54976;51.510;7.522;2023-05-10T18:32:30;15.30;99.90
58638;DHT22;54976;51.510;7.522;2023-05-10T18:35:31;15.20;99.90
58638;DHT22;54976;51.510;7.522;2023-05-10T18:38:31;15.20;99.90
58638;DHT22;54976;51.510;7.522;2023-05-10T18:41:32;15.10;99.90
58638;DHT22;54976;51.510;7.522;2023-05-10T18:44:33;15.00;99.90
58638;DHT22;54976;51.510;7.522;2023-05-10T18:47:33;15.00;99.90
58638;DHT22;54976;51.510;7.522;2023-05-10T18:50:34;15.00;99.90
58638;DHT22;54976;51.510;7.522;2023-05-10T18:53:35;14.90;99.90
58638;DHT22;54976;51.510;7.522;2023-05-10T18:56:36;14.90;99.90
58638;DHT22;54976;51.510;7.522;2023-05-10T18:59:39;14.90;99.90
58638;DHT22;54976;51.510;7.522;2023-05-10T19:02:39;14.90;99.90
58638;DHT22;54976;51.510;7.522;2023-05-10T19:05:40;15.00;99.90
58638;DHT22;54976;51.510;7.522;2023-05-10T19:08:41;14.90;99.90
58638;DHT22;54976;51.510;7.522;2023-05-10T19:11:41;14.90;99.90
58638;DHT22;54976;51.510;7.522;2023-05-10T19:14:42;14.80;99.90
58638;DHT22;54976;51.510;7.522;2023-05-10T19:17:43;14.80;99.90
58638;DHT22;54976;51.510;7.522;2023-05-10T19:20:43;14.80;99.90
58638;DHT22;54976;51.510;7.522;2023-05-10T19:23:44;14.70;99.90
58638;DHT22;54976;51.510;7.522;2023-05-10T19:26:45;14.70;99.90
58638;DHT22;54976;51.510;7.522;2023-05-10T19:29:46;14.70;99.90
58638;DHT22;54976;51.510;7.522;2023-05-10T19:32:46;14.70;99.90
58638;DHT22;54976;51.510;7.522;2023-05-10T19:35:49;14.70;99.90
58638;DHT22;54976;51.510;7.522;2023-05-10T19:38:51;14.60;99.90
58638;DHT22;54976;51.510;7.522;2023-05-10T19:41:51;14.60;99.90